Time;durP1;ratioP1;P1;durP2;ratioP2;P2;SDS_P1;SDS_P2;PMS_P1;PMS_P2;Temp;Humidity;BMP_temperature;BMP_pressure;BME280_temperature;BME280_humidity;BME280_pressure;Samples;Min_cycle;Max_cycle;Signal;HPM_P1;HPM_P2
2022/07/28 00:00:17;;;;;;;3.00;1.80;;;17.10;74.70;;;;;;5073584;28;20481;-49
2022/07/28 00:02:44;;;;;;;6.20;2.67;;;17.10;74.80;;;;;;5074434;28;20501;-49
2022/07/28 00:05:12;;;;;;;4.60;2.67;;;17.00;74.90;;;;;;5074236;28;20456;-49
2022/07/28 00:07:53;;;;;;;4.47;2.20;;;17.00;75.00;;;;;;5074238;28;20741;-49
2022/07/28 00:10:20;;;;;;;6.77;2.13;;;17.00;75.20;;;;;;5070973;28;20461;-48
2022/07/28 00:12:47;;;;;;;8.40;2.13;;;17.10;75.40;;;;;;5074374;28;20441;-49
2022/07/28 00:15:14;;;;;;;3.90;1.97;;;17.40;75.80;;;;;;5074192;28;20438;-49
2022/07/28 00:17:41;;;;;;;8.03;2.30;;;16.60;74.90;;;;;;5074153;28;20458;-49
2022/07/28 00:20:08;;;;;;;4.33;2.23;;;17.00;75.60;;;;;;5073489;28;20485;-49
2022/07/28 00:22:41;;;;;;;6.40;2.13;;;16.80;75.70;;;;;;5073966;28;20492;-49
2022/07/28 00:25:12;;;;;;;5.23;1.70;;;16.80;75.90;;;;;;5073957;28;20433;-49
2022/07/28 00:27:39;;;;;;;5.43;2.07;;;16.80;75.90;;;;;;5073951;28;20544;-49
2022/07/28 00:30:07;;;;;;;4.63;1.93;;;17.10;76.40;;;;;;5073172;28;20436;-49
2022/07/28 00:32:34;;;;;;;6.70;3.20;;;16.70;75.90;;;;;;5072807;28;20472;-49
2022/07/28 00:35:01;;;;;;;3.27;1.83;;;17.10;76.40;;;;;;5073455;28;20438;-49
2022/07/28 00:37:27;;;;;;;4.70;1.90;;;16.30;75.90;;;;;;5055760;28;20458;-49
2022/07/28 00:39:55;;;;;;;2.97;1.90;;;17.00;76.80;;;;;;5073586;28;20473;-49
2022/07/28 00:42:22;;;;;;;4.17;2.20;;;17.10;77.00;;;;;;5073532;28;20433;-49
2022/07/28 00:45:04;;;;;;;5.73;2.00;;;16.60;76.80;;;;;;5073547;28;20406;-49
2022/07/28 00:47:34;;;;;;;5.70;2.13;;;16.60;76.70;;;;;;5073380;28;20458;-49
2022/07/28 00:50:01;;;;;;;4.60;1.93;;;16.70;77.00;;;;;;5073050;28;20405;-49
2022/07/28 00:52:28;;;;;;;3.80;1.70;;;17.00;77.30;;;;;;5073553;28;20425;-49
2022/07/28 00:54:57;;;;;;;4.57;2.00;;;16.60;77.20;;;;;;5073329;28;20919;-49
2022/07/28 00:57:24;;;;;;;9.43;2.50;;;16.50;77.30;;;;;;5073105;28;20453;-49
2022/07/28 00:59:50;;;;;;;9.03;2.13;;;16.00;76.80;;;;;;5072974;28;20455;-49
2022/07/28 01:02:17;;;;;;;4.33;1.80;;;16.40;77.50;;;;;;5073385;28;20433;-49
2022/07/28 01:04:47;;;;;;;5.87;1.73;;;16.40;77.70;;;;;;5073252;28;20499;-49
2022/07/28 01:07:23;;;;;;;3.00;1.50;;;16.60;78.00;;;;;;5073002;28;20441;-49
2022/07/28 01:09:56;;;;;;;4.07;1.83;;;16.80;78.70;;;;;;5072671;28;20425;-49
2022/07/28 01:12:34;;;;;;;5.70;1.87;;;16.50;78.40;;;;;;5072949;28;20434;-49
2022/07/28 01:15:11;;;;;;;6.43;1.87;;;16.40;78.80;;;;;;5055055;28;20954;-49
2022/07/28 01:17:51;;;;;;;4.30;1.80;;;16.30;78.60;;;;;;5072877;28;20492;-49
2022/07/28 01:20:22;;;;;;;10.13;2.33;;;16.30;78.90;;;;;;5072279;28;20469;-49
2022/07/28 01:23:05;;;;;;;5.27;2.03;;;16.00;78.80;;;;;;5072735;28;20434;-49
2022/07/28 01:25:51;;;;;;;4.20;1.90;;;16.30;79.40;;;;;;5072821;28;20437;-49
2022/07/28 01:28:26;;;;;;;6.23;2.70;;;16.10;79.40;;;;;;5072429;28;20469;-49
2022/07/28 01:30:57;;;;;;;5.57;2.10;;;16.10;79.60;;;;;;5072532;28;20813;-49
2022/07/28 01:33:31;;;;;;;6.87;2.30;;;15.50;79.40;;;;;;5072717;28;20945;-49
2022/07/28 01:36:03;;;;;;;5.73;2.10;;;16.00;80.30;;;;;;5072729;28;20433;-49
2022/07/28 01:38:32;;;;;;;6.60;2.03;;;16.20;80.60;;;;;;5072010;28;20830;-49
2022/07/28 01:41:00;;;;;;;7.40;1.90;;;16.00;80.10;;;;;;5072330;28;20437;-49
2022/07/28 01:43:31;;;;;;;4.57;1.87;;;16.10;80.50;;;;;;5072291;28;20434;-49
2022/07/28 01:46:01;;;;;;;6.20;2.07;;;15.90;80.80;;;;;;5072159;28;20465;-49
2022/07/28 01:48:29;;;;;;;6.93;2.27;;;15.90;81.10;;;;;;5072074;28;20675;-49
2022/07/28 01:50:57;;;;;;;5.17;2.40;;;16.20;81.40;;;;;;5072401;28;20439;-49
2022/07/28 01:53:26;;;;;;;3.90;1.70;;;15.80;81.10;;;;;;5072185;28;20536;-49
2022/07/28 01:55:53;;;;;;;5.20;2.07;;;15.80;81.30;;;;;;5072060;28;20953;-49
2022/07/28 01:58:22;;;;;;;4.60;1.73;;;15.80;81.50;;;;;;5072194;28;20465;-49
2022/07/28 02:00:50;;;;;;;3.80;1.97;;;16.30;82.50;;;;;;5053920;28;20477;-49
2022/07/28 02:03:21;;;;;;;7.00;2.57;;;16.10;82.40;;;;;;5072127;28;20438;-49
2022/07/28 02:05:50;;;;;;;7.40;2.20;;;15.70;82.20;;;;;;5072133;28;20430;-49
2022/07/28 02:08:18;;;;;;;5.73;2.30;;;16.00;83.10;;;;;;5071845;28;20515;-49
2022/07/28 02:11:38;;;;;;;7.03;2.00;;;15.60;82.80;;;;;;5071576;28;20433;-49
2022/07/28 02:13:34;;;;;;;4.87;1.93;;;15.70;83.30;;;;;;5071854;28;20520;-49
2022/07/28 02:16:04;;;;;;;4.17;2.03;;;15.80;83.90;;;;;;5072380;28;20521;-49
2022/07/28 02:18:34;;;;;;;7.70;2.40;;;15.70;83.90;;;;;;5071430;28;20461;-49
2022/07/28 02:21:02;;;;;;;3.80;1.97;;;15.50;84.00;;;;;;5071607;28;21003;-49
2022/07/28 02:23:29;;;;;;;4.90;2.60;;;15.40;84.30;;;;;;5071750;28;20911;-49
2022/07/28 02:26:03;;;;;;;8.77;2.57;;;15.90;84.90;;;;;;5071828;28;20934;-49
2022/07/28 02:28:30;;;;;;;7.40;2.50;;;15.60;84.80;;;;;;5070901;28;20465;-49
2022/07/28 02:31:03;;;;;;;5.33;2.93;;;14.90;84.40;;;;;;5070874;28;20951;-49
2022/07/28 02:33:34;;;;;;;16.90;2.90;;;15.40;85.20;;;;;;5052931;28;20441;-49
2022/07/28 02:36:07;;;;;;;5.77;2.60;;;15.10;84.90;;;;;;5070899;28;20442;-49
2022/07/28 02:38:40;;;;;;;9.70;2.50;;;15.20;85.60;;;;;;5052588;28;20452;-49
2022/07/28 02:41:12;;;;;;;8.10;2.20;;;14.80;85.60;;;;;;5070695;28;20480;-49
2022/07/28 02:43:43;;;;;;;6.17;2.10;;;15.10;85.90;;;;;;5070678;28;20425;-49
2022/07/28 02:46:13;;;;;;;5.53;2.87;;;15.10;86.30;;;;;;5070671;28;20440;-49
2022/07/28 02:48:45;;;;;;;5.07;2.40;;;15.20;86.60;;;;;;5070274;28;20449;-49
2022/07/28 02:51:13;;;;;;;6.90;2.50;;;14.80;86.50;;;;;;5070632;28;20425;-48
2022/07/28 02:53:40;;;;;;;6.60;2.70;;;15.10;87.50;;;;;;5070601;28;20948;-49
2022/07/28 02:56:08;;;;;;;8.13;2.60;;;15.30;87.80;;;;;;5071524;28;20433;-49
2022/07/28 02:58:36;;;;;;;7.40;2.60;;;16.20;89.00;;;;;;5073654;28;20463;-49
2022/07/28 03:01:03;;;;;;;7.00;2.97;;;15.20;88.00;;;;;;5074080;28;20477;-49
2022/07/28 03:03:33;;;;;;;6.20;2.60;;;15.50;88.60;;;;;;5074160;28;20474;-49
2022/07/28 03:06:01;;;;;;;8.30;2.30;;;15.50;88.90;;;;;;5056081;28;20441;-49
2022/07/28 03:08:27;;;;;;;5.20;1.87;;;14.80;89.00;;;;;;5073463;28;20457;-49
2022/07/28 03:11:07;;;;;;;6.80;2.57;;;15.30;88.70;;;;;;5074303;28;20429;-49
2022/07/28 03:13:33;;;;;;;5.10;2.97;;;15.20;88.80;;;;;;5073800;28;20459;-49
2022/07/28 03:16:01;;;;;;;8.70;3.03;;;15.30;89.40;;;;;;5073916;28;20446;-49
2022/07/28 03:18:27;;;;;;;9.60;3.50;;;15.40;89.70;;;;;;5073441;28;20487;-49
2022/07/28 03:20:54;;;;;;;5.90;2.50;;;15.40;89.80;;;;;;5074136;28;20609;-49
2022/07/28 03:23:26;;;;;;;9.83;2.70;;;15.40;90.00;;;;;;5073669;28;20431;-49
2022/07/28 03:26:05;;;;;;;11.40;3.70;;;15.30;89.90;;;;;;5074031;28;20789;-49
2022/07/28 03:28:33;;;;;;;7.63;3.10;;;14.60;89.60;;;;;;5039397;28;1007790;-47
2022/07/28 03:31:04;;;;;;;4.30;2.47;;;14.80;89.80;;;;;;5074714;28;20199;-47
2022/07/28 03:33:32;;;;;;;10.50;3.50;;;14.70;89.80;;;;;;5075510;28;20799;-47
2022/07/28 03:36:05;;;;;;;10.50;2.70;;;14.50;89.80;;;;;;5075061;28;20809;-47
2022/07/28 03:38:37;;;;;;;13.57;3.30;;;15.00;90.20;;;;;;5074421;28;20517;-47
2022/07/28 03:41:05;;;;;;;8.10;3.20;;;14.80;90.20;;;;;;5074706;28;20486;-47
2022/07/28 03:43:33;;;;;;;9.07;3.30;;;15.10;90.40;;;;;;5074609;28;20431;-48
2022/07/28 03:46:00;;;;;;;7.90;3.20;;;15.20;90.70;;;;;;5074740;28;20440;-48
2022/07/28 03:48:28;;;;;;;5.83;2.60;;;14.40;90.30;;;;;;5074037;28;20456;-48
2022/07/28 03:50:55;;;;;;;6.20;3.03;;;14.80;90.50;;;;;;5074492;28;20769;-47
2022/07/28 03:53:25;;;;;;;8.33;2.93;;;14.90;90.80;;;;;;5074527;28;20448;-46
2022/07/28 03:55:53;;;;;;;7.30;3.33;;;14.60;90.60;;;;;;5074675;28;20436;-47
2022/07/28 03:58:21;;;;;;;10.20;3.60;;;14.80;90.80;;;;;;5074426;28;20456;-47
2022/07/28 04:00:49;;;;;;;5.53;2.87;;;14.90;90.90;;;;;;5074135;28;20471;-47
2022/07/28 04:03:17;;;;;;;7.07;3.20;;;15.00;91.10;;;;;;5074294;28;20436;-47
2022/07/28 04:05:43;;;;;;;10.23;3.60;;;14.80;91.00;;;;;;5074308;28;20443;-47
2022/07/28 04:08:10;;;;;;;12.57;3.70;;;14.90;91.20;;;;;;5073665;28;20447;-48
2022/07/28 04:10:37;;;;;;;5.87;3.10;;;15.00;91.30;;;;;;5073689;28;20465;-48
2022/07/28 04:13:06;;;;;;;8.60;3.20;;;15.20;91.50;;;;;;5074025;28;20436;-48
2022/07/28 04:15:34;;;;;;;11.60;3.40;;;15.50;91.60;;;;;;5074355;28;20454;-47
2022/07/28 04:18:01;;;;;;;10.53;3.90;;;15.20;91.40;;;;;;5074087;28;20440;-47
2022/07/28 04:20:28;;;;;;;12.07;3.90;;;15.00;91.10;;;;;;5073576;28;21002;-47
2022/07/28 04:22:55;;;;;;;9.60;3.80;;;15.40;91.10;;;;;;5073726;28;20428;-48
2022/07/28 04:25:28;;;;;;;6.67;3.33;;;15.60;91.10;;;;;;5073857;28;20430;-48
2022/07/28 04:27:55;;;;;;;14.47;4.00;;;15.80;91.00;;;;;;5073387;28;20501;-47
2022/07/28 04:30:26;;;;;;;7.60;3.23;;;16.10;91.00;;;;;;5073193;28;20440;-48
2022/07/28 04:32:54;;;;;;;5.90;3.10;;;16.40;90.90;;;;;;5074082;28;20429;-48
2022/07/28 04:35:24;;;;;;;6.50;2.90;;;16.10;90.50;;;;;;5073549;28;20438;-48
2022/07/28 04:37:53;;;;;;;5.87;2.57;;;16.50;90.20;;;;;;5073348;28;20538;-47
2022/07/28 04:40:20;;;;;;;6.93;3.27;;;16.70;90.00;;;;;;5072835;28;20534;-47
2022/07/28 04:42:47;;;;;;;5.50;2.30;;;16.50;89.50;;;;;;5073551;28;20433;-47
2022/07/28 04:45:14;;;;;;;5.90;2.83;;;16.50;88.40;;;;;;5073368;28;20449;-47
2022/07/28 04:47:42;;;;;;;8.47;2.70;;;16.60;87.90;;;;;;5073201;28;20449;-48
2022/07/28 04:50:10;;;;;;;6.03;2.93;;;17.00;88.60;;;;;;5072802;28;20981;-47
2022/07/28 04:52:38;;;;;;;11.23;3.23;;;16.90;87.30;;;;;;5073188;28;20482;-47
2022/07/28 04:55:06;;;;;;;8.60;3.10;;;16.90;87.60;;;;;;5073494;28;20433;-48
2022/07/28 04:57:33;;;;;;;6.43;2.87;;;17.20;86.60;;;;;;5073168;28;20453;-47
2022/07/28 05:00:00;;;;;;;5.47;2.47;;;17.00;86.50;;;;;;5072773;28;21032;-48
2022/07/28 05:02:27;;;;;;;6.10;2.67;;;17.20;87.10;;;;;;5072995;28;20863;-47
2022/07/28 05:04:55;;;;;;;5.23;3.00;;;17.10;86.00;;;;;;5072933;28;20853;-47
2022/07/28 05:07:22;;;;;;;8.33;2.70;;;17.40;85.60;;;;;;5072522;28;20446;-46
2022/07/28 05:09:48;;;;;;;6.87;2.83;;;17.70;86.80;;;;;;5072601;28;20953;-46
2022/07/28 05:12:15;;;;;;;12.23;2.70;;;;;;;;;;5072788;28;20430;-47
2022/07/28 05:14:42;;;;;;;7.13;2.47;;;17.40;85.30;;;;;;5072813;28;20449;-47
2022/07/28 05:17:09;;;;;;;8.30;2.60;;;;;;;;;;5054719;28;20456;-47
2022/07/28 05:19:36;;;;;;;5.90;2.47;;;17.50;84.90;;;;;;5071599;28;20438;-48
2022/07/28 05:22:04;;;;;;;11.50;4.17;;;18.00;86.00;;;;;;5072563;28;20633;-46
2022/07/28 05:24:30;;;;;;;11.47;3.40;;;17.80;84.80;;;;;;5072525;28;20506;-48
2022/07/28 05:26:57;;;;;;;18.20;5.33;;;18.20;85.60;;;;;;5072432;28;20423;-47
2022/07/28 05:29:24;;;;;;;10.43;2.80;;;18.20;84.80;;;;;;5072040;28;20477;-47
2022/07/28 05:31:51;;;;;;;9.53;3.20;;;17.80;84.20;;;;;;5072235;28;20917;-47
2022/07/28 05:34:17;;;;;;;4.40;2.30;;;18.40;85.30;;;;;;5072879;28;20853;-47
2022/07/28 05:36:44;;;;;;;6.20;3.33;;;18.00;84.10;;;;;;5072273;28;20440;-47
2022/07/28 05:39:12;;;;;;;6.70;3.00;;;;;;;;;;5071673;28;20461;-47
2022/07/28 05:41:39;;;;;;;7.57;2.70;;;18.10;83.80;;;;;;5072209;28;20477;-46
2022/07/28 05:44:05;;;;;;;9.20;2.50;;;18.00;83.40;;;;;;5072290;28;20430;-47
2022/07/28 05:46:32;;;;;;;5.30;2.23;;;18.20;83.60;;;;;;5072403;28;20480;-47
2022/07/28 05:48:58;;;;;;;8.87;2.10;;;18.40;83.40;;;;;;5071808;28;20465;-47
2022/07/28 05:51:25;;;;;;;6.03;2.47;;;18.40;83.30;;;;;;5071920;28;20431;-47
2022/07/28 05:53:52;;;;;;;8.90;2.20;;;18.30;83.90;;;;;;5071773;28;20469;-47
2022/07/28 05:56:20;;;;;;;4.23;1.90;;;18.70;83.40;;;;;;5071989;28;20443;-47
2022/07/28 05:58:47;;;;;;;4.70;1.90;;;18.70;83.60;;;;;;5071150;28;20463;-47
2022/07/28 06:01:13;;;;;;;6.83;2.43;;;18.70;82.70;;;;;;5071698;28;20487;-47
2022/07/28 06:03:40;;;;;;;7.40;2.80;;;18.90;83.20;;;;;;5071645;28;20435;-48
2022/07/28 06:06:07;;;;;;;4.20;1.80;;;18.80;81.90;;;;;;5071946;28;20843;-47
2022/07/28 06:08:35;;;;;;;8.53;2.93;;;18.90;82.20;;;;;;5071103;28;20866;-47
2022/07/28 06:11:07;;;;;;;5.03;2.20;;;19.20;82.20;;;;;;5071533;28;20939;-48
2022/07/28 06:13:36;;;;;;;14.27;4.00;;;19.00;80.60;;;;;;5071637;28;20459;-49
2022/07/28 06:16:03;;;;;;;23.53;3.87;;;19.10;80.50;;;;;;5053492;28;20455;-47
2022/07/28 06:18:30;;;;;;;15.33;2.80;;;19.30;79.70;;;;;;5071088;28;20447;-48
2022/07/28 06:20:56;;;;;;;28.27;4.07;;;19.10;79.60;;;;;;5071334;28;20484;-47
2022/07/28 06:23:23;;;;;;;5.67;2.30;;;19.20;79.60;;;;;;5071368;28;20429;-48
2022/07/28 06:25:56;;;;;;;7.83;2.30;;;19.20;79.60;;;;;;5071368;28;20432;-48
2022/07/28 06:28:23;;;;;;;7.50;2.00;;;19.10;78.40;;;;;;5070618;28;20989;-48
2022/07/28 06:30:50;;;;;;;7.03;2.27;;;19.30;78.80;;;;;;5070840;28;20439;-48
2022/07/28 06:33:17;;;;;;;5.37;1.93;;;19.30;78.20;;;;;;5071125;28;20910;-48
2022/07/28 06:36:09;;;;;;;7.70;2.33;;;19.00;77.70;;;;;;5071252;28;20440;-47
2022/07/28 06:38:36;;;;;;;11.27;2.30;;;19.20;78.60;;;;;;5050264;28;20490;-48
2022/07/28 06:41:02;;;;;;;11.40;2.67;;;19.30;77.70;;;;;;5071044;28;20569;-48
2022/07/28 06:43:29;;;;;;;10.93;2.30;;;19.20;77.50;;;;;;5070994;28;20920;-48
2022/07/28 06:45:57;;;;;;;8.10;1.80;;;19.30;77.90;;;;;;5072073;28;20779;-48
2022/07/28 06:48:23;;;;;;;4.63;1.70;;;19.30;77.70;;;;;;5070663;28;20463;-48
2022/07/28 06:50:50;;;;;;;6.40;2.20;;;19.20;77.10;;;;;;5070652;28;20432;-48
2022/07/28 06:53:16;;;;;;;13.03;2.20;;;19.50;76.80;;;;;;5071080;28;20443;-47
2022/07/28 06:55:43;;;;;;;8.50;2.13;;;19.40;76.30;;;;;;5071060;28;20445;-48
2022/07/28 06:58:10;;;;;;;8.10;2.20;;;19.40;75.60;;;;;;5070949;28;20452;-48
2022/07/28 07:00:36;;;;;;;9.60;2.43;;;19.30;76.30;;;;;;5070556;28;20473;-49
2022/07/28 07:03:04;;;;;;;7.70;1.90;;;19.70;76.50;;;;;;5070873;28;20433;-48
2022/07/28 07:05:34;;;;;;;6.83;3.03;;;19.80;76.50;;;;;;5071059;28;20818;-47
2022/07/28 07:08:01;;;;;;;4.73;2.67;;;19.70;75.30;;;;;;5070909;28;20540;-48
2022/07/28 07:10:27;;;;;;;5.80;1.93;;;20.00;76.10;;;;;;5070301;28;20540;-50
2022/07/28 07:12:54;;;;;;;13.40;3.37;;;19.80;75.40;;;;;;5070657;28;20434;-48
2022/07/28 07:15:21;;;;;;;8.70;2.23;;;19.60;75.20;;;;;;5071007;28;20437;-49
2022/07/28 07:17:47;;;;;;;8.87;2.60;;;20.10;74.50;;;;;;5070545;28;20455;-47
2022/07/28 07:20:15;;;;;;;6.47;2.83;;;20.20;74.90;;;;;;5070035;28;20432;-48
2022/07/28 07:22:42;;;;;;;5.00;2.20;;;20.50;75.50;;;;;;5070752;28;20459;-48
2022/07/28 07:25:09;;;;;;;15.37;3.30;;;20.20;74.70;;;;;;5070531;28;20433;-47
2022/07/28 07:27:38;;;;;;;15.73;3.03;;;20.60;74.20;;;;;;5070690;28;20469;-48
2022/07/28 07:30:07;;;;;;;5.87;2.60;;;20.50;74.80;;;;;;5070623;28;20900;-48
2022/07/28 07:32:34;;;;;;;5.03;2.70;;;20.30;73.50;;;;;;5070547;28;20441;-47
2022/07/28 07:35:01;;;;;;;6.53;2.43;;;20.60;73.30;;;;;;5070622;28;20438;-47
2022/07/28 07:37:31;;;;;;;8.40;3.43;;;20.40;72.90;;;;;;5070423;28;20472;-47
2022/07/28 07:39:58;;;;;;;5.87;2.23;;;20.70;72.80;;;;;;5070354;28;20447;-47
2022/07/28 07:42:24;;;;;;;5.70;2.07;;;20.60;73.00;;;;;;5071166;28;20504;-47
2022/07/28 07:44:51;;;;;;;22.00;5.07;;;20.70;72.60;;;;;;5074268;28;20434;-47
2022/07/28 07:47:18;;;;;;;10.07;2.40;;;20.80;71.80;;;;;;5074122;28;20453;-48
2022/07/28 07:49:45;;;;;;;11.63;2.60;;;20.90;72.60;;;;;;5073674;28;20519;-48
2022/07/28 07:52:12;;;;;;;7.30;2.47;;;20.70;72.10;;;;;;5073869;28;20429;-48
2022/07/28 07:54:40;;;;;;;7.03;2.00;;;20.30;70.80;;;;;;5074238;28;20434;-48
2022/07/28 07:57:07;;;;;;;6.93;2.20;;;21.00;71.30;;;;;;5073948;28;20443;-48
2022/07/28 07:59:33;;;;;;;4.87;2.20;;;20.90;72.00;;;;;;5073931;28;20555;-48
2022/07/28 08:02:00;;;;;;;12.27;2.60;;;20.70;71.30;;;;;;5073882;28;20453;-48
2022/07/28 08:04:26;;;;;;;7.03;1.90;;;20.90;71.40;;;;;;5074021;28;20430;-48
2022/07/28 08:06:53;;;;;;;20.43;3.30;;;20.70;70.80;;;;;;5073900;28;20856;-48
2022/07/28 08:09:21;;;;;;;6.87;2.20;;;20.70;69.70;;;;;;5073072;28;20446;-48
2022/07/28 08:11:49;;;;;;;14.30;3.40;;;20.90;70.60;;;;;;5055696;28;20449;-48
2022/07/28 08:14:16;;;;;;;7.33;2.20;;;20.90;70.30;;;;;;5073787;28;20433;-49
2022/07/28 08:16:42;;;;;;;8.13;2.13;;;21.10;69.60;;;;;;5073495;28;20800;-48
2022/07/28 08:19:09;;;;;;;9.00;2.00;;;20.90;68.10;;;;;;5073253;28;20467;-47
2022/07/28 08:21:35;;;;;;;8.17;2.13;;;21.20;69.30;;;;;;5073457;28;20478;-48
2022/07/28 08:24:02;;;;;;;12.27;2.90;;;21.30;68.30;;;;;;5073613;28;20502;-47
2022/07/28 08:26:29;;;;;;;7.20;1.87;;;21.40;69.10;;;;;;5073570;28;20442;-48
2022/07/28 08:28:57;;;;;;;7.40;2.33;;;21.20;68.70;;;;;;5072821;28;21021;-47
2022/07/28 08:31:24;;;;;;;5.03;2.07;;;21.50;68.60;;;;;;5073408;28;20796;-47
2022/07/28 08:33:51;;;;;;;5.70;2.20;;;21.30;67.80;;;;;;5073362;28;20424;-47
2022/07/28 08:36:17;;;;;;;9.20;2.63;;;21.70;67.50;;;;;;5073226;28;20496;-47
2022/07/28 08:38:44;;;;;;;6.77;2.13;;;21.80;66.30;;;;;;5054538;28;20562;-48
2022/07/28 08:41:19;;;;;;;10.73;2.83;;;21.60;66.00;;;;;;5073314;28;20498;-47
2022/07/28 08:43:49;;;;;;;7.50;2.10;;;21.90;65.40;;;;;;5073337;28;20427;-48
2022/07/28 08:46:19;;;;;;;7.00;2.33;;;21.90;65.20;;;;;;5073162;28;20498;-47
2022/07/28 08:48:47;;;;;;;10.90;2.60;;;21.70;65.80;;;;;;5072293;28;20557;-47
2022/07/28 08:51:14;;;;;;;6.60;2.00;;;21.90;65.80;;;;;;5072886;28;20456;-48
2022/07/28 08:53:41;;;;;;;10.20;2.20;;;21.70;64.80;;;;;;5072008;28;20502;-48
2022/07/28 08:56:09;;;;;;;3.53;1.20;;;22.10;64.10;;;;;;5072563;28;20533;-48
2022/07/28 08:58:38;;;;;;;4.93;2.00;;;21.90;63.00;;;;;;5072276;28;20472;-47
2022/07/28 09:01:07;;;;;;;6.10;1.50;;;22.20;62.60;;;;;;5054908;28;20510;-49
2022/07/28 09:03:37;;;;;;;10.60;2.40;;;22.20;62.80;;;;;;5072879;28;20441;-47
2022/07/28 09:06:03;;;;;;;13.20;3.10;;;21.90;62.50;;;;;;5072916;28;20956;-48
2022/07/28 09:08:30;;;;;;;10.77;2.93;;;22.40;63.30;;;;;;5072035;28;20452;-47
2022/07/28 09:10:57;;;;;;;6.33;2.10;;;22.30;62.80;;;;;;5072784;28;20921;-48
2022/07/28 09:13:24;;;;;;;6.53;1.80;;;22.20;62.40;;;;;;5072964;28;20817;-48
2022/07/28 09:15:50;;;;;;;6.20;1.87;;;22.90;62.60;;;;;;5072673;28;20437;-49
2022/07/28 09:18:19;;;;;;;4.20;1.40;;;22.30;61.60;;;;;;5054637;28;20472;-48
2022/07/28 09:20:47;;;;;;;28.83;3.47;;;22.10;60.70;;;;;;5072263;28;20511;-48
2022/07/28 09:23:14;;;;;;;5.00;1.60;;;22.30;60.90;;;;;;5072523;28;20550;-48
2022/07/28 09:25:40;;;;;;;7.00;1.80;;;22.10;61.10;;;;;;5072560;28;20437;-48
2022/07/28 09:28:09;;;;;;;5.77;1.90;;;22.10;61.60;;;;;;5096650;22;20991;-47
2022/07/28 09:30:37;;;;;;;6.90;1.90;;;22.30;62.20;;;;;;5072254;28;20441;-48
2022/07/28 09:33:15;;;;;;;4.83;1.60;;;22.40;62.10;;;;;;5072644;28;20956;-48
2022/07/28 09:35:49;;;;;;;3.50;1.90;;;22.60;61.30;;;;;;5066578;28;20495;-48
2022/07/28 09:38:16;;;;;;;6.80;1.80;;;22.70;60.70;;;;;;5072173;28;20483;-47
2022/07/28 09:40:55;;;;;;;4.50;1.80;;;22.70;60.50;;;;;;5070886;28;20445;-47
2022/07/28 09:43:31;;;;;;;5.70;2.20;;;22.90;60.70;;;;;;5070492;28;20487;-47
2022/07/28 09:46:04;;;;;;;4.17;1.90;;;22.90;60.00;;;;;;5072266;28;20937;-47
2022/07/28 09:48:31;;;;;;;6.63;2.90;;;23.50;60.40;;;;;;5069820;28;20470;-47
2022/07/28 09:51:10;;;;;;;6.10;1.83;;;22.90;59.60;;;;;;5072268;28;20435;-48
2022/07/28 09:53:37;;;;;;;8.97;2.17;;;23.30;59.30;;;;;;5072351;28;20473;-47
2022/07/28 09:56:04;;;;;;;6.37;1.83;;;23.30;59.50;;;;;;5072372;28;20435;-48
2022/07/28 09:58:31;;;;;;;4.80;2.03;;;23.20;59.30;;;;;;5071868;28;20465;-47
2022/07/28 10:01:08;;;;;;;4.03;1.57;;;23.20;59.30;;;;;;5072011;28;20425;-47
2022/07/28 10:03:36;;;;;;;7.63;3.23;;;23.40;59.30;;;;;;5072007;28;20805;-46
2022/07/28 10:06:08;;;;;;;6.40;2.43;;;23.40;59.30;;;;;;5071296;28;20434;-47
2022/07/28 10:08:46;;;;;;;2.60;1.43;;;23.30;59.20;;;;;;5071289;28;20467;-47
2022/07/28 10:11:15;;;;;;;2.90;1.50;;;23.20;58.80;;;;;;5071657;28;20506;-47
2022/07/28 10:13:53;;;;;;;4.53;2.23;;;23.10;59.20;;;;;;5071969;28;20429;-48
2022/07/28 10:16:20;;;;;;;9.50;2.43;;;22.90;59.10;;;;;;5071745;28;20430;-48
2022/07/28 10:18:47;;;;;;;7.10;2.20;;;22.80;58.90;;;;;;5071285;28;20496;-47
2022/07/28 10:21:17;;;;;;;5.17;2.40;;;22.90;59.10;;;;;;5071900;28;20441;-47
2022/07/28 10:23:49;;;;;;;6.80;2.03;;;22.80;59.10;;;;;;5072869;28;20454;-48
2022/07/28 10:26:19;;;;;;;4.33;2.00;;;22.80;59.20;;;;;;5073510;28;20583;-48
2022/07/28 10:28:49;;;;;;;9.23;2.60;;;22.80;59.20;;;;;;5072342;28;20472;-47
2022/07/28 10:31:32;;;;;;;9.17;2.80;;;22.80;59.10;;;;;;5072055;28;20440;-48
2022/07/28 10:34:01;;;;;;;4.80;2.03;;;22.90;58.90;;;;;;5072250;28;20809;-48
2022/07/28 10:36:28;;;;;;;4.37;1.73;;;22.80;59.20;;;;;;5072297;28;20440;-46
2022/07/28 10:39:04;;;;;;;7.03;2.13;;;22.50;59.40;;;;;;5071772;28;20449;-47
2022/07/28 10:41:39;;;;;;;3.10;1.50;;;22.30;59.20;;;;;;5071976;28;20429;-48
2022/07/28 10:44:07;;;;;;;6.43;1.73;;;22.50;59.30;;;;;;5072251;28;20443;-47
2022/07/28 10:46:34;;;;;;;3.43;1.70;;;22.50;59.60;;;;;;5071992;28;20437;-49
2022/07/28 10:49:03;;;;;;;6.87;2.00;;;22.50;59.80;;;;;;5071181;28;20477;-48
2022/07/28 10:51:31;;;;;;;5.73;2.00;;;22.30;59.70;;;;;;5071887;28;20868;-47
2022/07/28 10:54:07;;;;;;;9.10;3.13;;;22.50;59.50;;;;;;5072031;28;20489;-46
2022/07/28 10:56:46;;;;;;;6.63;2.40;;;22.50;59.40;;;;;;5071938;28;20436;-48
2022/07/28 10:59:35;;;;;;;5.60;2.00;;;22.80;59.50;;;;;;5071171;28;20463;-47
2022/07/28 11:02:01;;;;;;;9.60;3.13;;;23.00;59.50;;;;;;5071754;28;20484;-47
2022/07/28 11:04:57;;;;;;;5.30;2.53;;;22.70;58.50;;;;;;5071784;28;20433;-47
2022/07/28 11:07:37;;;;;;;6.97;1.97;;;23.10;58.00;;;;;;5071424;28;20489;-46
2022/07/28 11:10:17;;;;;;;5.23;1.80;;;22.80;57.10;;;;;;5071023;28;20434;-47
2022/07/28 11:12:48;;;;;;;4.83;1.70;;;23.10;57.10;;;;;;5071630;28;20434;-47
2022/07/28 11:15:30;;;;;;;4.70;2.30;;;23.10;57.10;;;;;;5071545;28;20444;-48
2022/07/28 11:17:58;;;;;;;4.33;2.57;;;22.90;57.10;;;;;;5073486;28;20853;-47
2022/07/28 11:21:06;;;;;;;4.77;1.87;;;23.10;57.50;;;;;;5075300;28;20464;-47
2022/07/28 11:23:40;;;;;;;6.03;1.83;;;23.30;57.10;;;;;;5075468;28;20530;-48
2022/07/28 11:26:33;;;;;;;3.87;1.70;;;23.20;56.80;;;;;;5067855;28;20451;-48
2022/07/28 11:29:22;;;;;;;7.60;2.53;;;23.20;56.20;;;;;;5066508;28;20960;-47
2022/07/28 11:32:03;;;;;;;2.87;1.50;;;23.40;55.60;;;;;;5075376;28;20444;-46
2022/07/28 11:35:17;;;;;;;5.00;2.00;;;23.30;55.70;;;;;;5086495;28;20956;-48
2022/07/28 11:38:10;;;;;;;5.47;1.80;;;23.20;56.00;;;;;;5095333;28;20461;-47
2022/07/28 11:40:38;;;;;;;5.10;2.20;;;23.10;56.10;;;;;;5091339;28;20984;-48
2022/07/28 11:43:33;;;;;;;5.30;1.80;;;23.30;56.60;;;;;;5061766;28;20491;-47
2022/07/28 11:46:22;;;;;;;4.20;1.50;;;23.10;56.40;;;;;;5079277;28;20454;-47
2022/07/28 11:49:20;;;;;;;3.67;1.67;;;22.80;55.90;;;;;;5074314;28;20470;-47
2022/07/28 11:52:06;;;;;;;4.27;1.73;;;23.10;56.00;;;;;;5066895;28;20434;-46
2022/07/28 11:54:34;;;;;;;3.47;1.80;;;23.10;56.20;;;;;;5074848;28;20443;-47
2022/07/28 11:57:01;;;;;;;4.40;2.00;;;22.90;56.00;;;;;;5074042;28;20438;-47
2022/07/28 11:59:40;;;;;;;12.17;2.70;;;23.20;56.00;;;;;;5074051;28;20458;-48
2022/07/28 12:02:06;;;;;;;11.53;3.30;;;23.30;55.60;;;;;;5074388;28;20475;-48
2022/07/28 12:04:33;;;;;;;4.87;2.47;;;23.40;55.40;;;;;;5074224;28;20489;-47
2022/07/28 12:07:00;;;;;;;26.73;4.17;;;23.50;55.10;;;;;;5074536;28;20489;-48
2022/07/28 12:09:30;;;;;;;9.90;3.23;;;23.50;55.30;;;;;;5074409;28;20474;-48
2022/07/28 12:11:57;;;;;;;8.47;2.23;;;23.10;55.00;;;;;;5074872;28;20460;-47
2022/07/28 12:14:25;;;;;;;7.97;2.10;;;23.40;55.50;;;;;;5074840;28;20430;-47
2022/07/28 12:16:53;;;;;;;15.03;2.83;;;23.30;55.70;;;;;;5074179;28;20431;-48
2022/07/28 12:19:20;;;;;;;5.43;1.47;;;23.00;55.60;;;;;;5073580;28;20935;-47
2022/07/28 12:21:48;;;;;;;2.50;1.70;;;23.30;55.90;;;;;;5074437;28;20438;-47
2022/07/28 12:24:16;;;;;;;2.50;1.77;;;23.30;56.00;;;;;;5074652;28;20836;-47
2022/07/28 12:26:43;;;;;;;6.73;2.00;;;23.00;55.80;;;;;;5073998;28;20423;-47
2022/07/28 12:29:12;;;;;;;6.17;1.83;;;23.20;56.00;;;;;;5073663;28;20474;-48
2022/07/28 12:31:41;;;;;;;6.30;2.00;;;23.00;55.80;;;;;;5074098;28;20433;-47
2022/07/28 12:34:09;;;;;;;12.67;3.27;;;23.30;55.90;;;;;;5074521;28;20438;-48
2022/07/28 12:36:37;;;;;;;8.50;2.00;;;23.30;56.00;;;;;;5073909;28;20439;-48
2022/07/28 12:39:05;;;;;;;7.43;2.23;;;23.20;55.80;;;;;;5073277;28;20457;-47
2022/07/28 12:41:33;;;;;;;6.77;2.10;;;23.40;56.20;;;;;;5073505;28;20821;-48
2022/07/28 12:44:00;;;;;;;4.47;2.00;;;23.30;55.40;;;;;;5068802;28;20577;-47
2022/07/28 12:46:28;;;;;;;5.30;2.33;;;23.20;55.00;;;;;;5084198;28;20436;-47
2022/07/28 12:48:56;;;;;;;3.50;2.20;;;23.40;55.30;;;;;;5075693;28;20467;-47
2022/07/28 12:51:35;;;;;;;4.77;2.20;;;23.20;55.70;;;;;;5083571;28;20442;-47
2022/07/28 12:54:02;;;;;;;14.50;3.10;;;23.20;54.90;;;;;;5093857;28;20439;-48
2022/07/28 12:56:29;;;;;;;8.37;2.57;;;23.40;55.30;;;;;;5093743;28;20435;-48
2022/07/28 12:59:08;;;;;;;8.40;1.83;;;23.30;55.10;;;;;;5092604;28;20985;-47